Time;durP1;ratioP1;P1;durP2;ratioP2;P2;SDS_P1;SDS_P2;PMS_P1;PMS_P2;Temp;Humidity;BMP_temperature;BMP_pressure;BME280_temperature;BME280_humidity;BME280_pressure;Samples;Min_cycle;Max_cycle;Signal;HPM_P1;HPM_P2
2021/03/05 00:00:59;;;;;;;24.85;6.05;;;19.20;45.20;;;;;;5090417;28;20364;-71
2021/03/05 00:03:25;;;;;;;20.10;4.10;;;19.30;45.10;;;;;;5087255;28;20059;-71
2021/03/05 00:05:53;;;;;;;20.05;4.53;;;19.30;45.20;;;;;;5095180;28;20334;-74
2021/03/05 00:08:20;;;;;;;18.55;4.90;;;19.20;45.40;;;;;;5085372;28;20448;-71
2021/03/05 00:10:47;;;;;;;18.73;5.35;;;19.10;45.10;;;;;;5090471;28;20047;-73
2021/03/05 00:13:15;;;;;;;17.38;4.32;;;18.90;45.20;;;;;;5102628;28;20571;-72
2021/03/05 00:15:44;;;;;;;24.90;4.57;;;18.70;45.50;;;;;;5093458;28;20107;-72
2021/03/05 00:18:12;;;;;;;16.45;5.20;;;18.60;45.80;;;;;;5092410;28;20460;-72
2021/03/05 00:20:47;;;;;;;17.95;4.20;;;18.70;45.70;;;;;;5096832;28;20032;-71
2021/03/05 00:23:13;;;;;;;16.60;3.55;;;18.60;45.50;;;;;;5099746;28;20151;-71
2021/03/05 00:25:39;;;;;;;17.25;5.10;;;18.60;45.80;;;;;;5097072;28;20017;-70
2021/03/05 00:28:06;;;;;;;24.50;5.60;;;18.60;45.60;;;;;;5100559;28;20404;-70
2021/03/05 00:30:34;;;;;;;13.18;3.50;;;18.60;45.50;;;;;;5100955;28;20085;-70
2021/03/05 00:33:02;;;;;;;20.95;4.90;;;18.60;45.40;;;;;;5100510;28;20089;-71
2021/03/05 00:35:28;;;;;;;18.67;4.60;;;18.50;45.40;;;;;;5101392;28;20085;-70
2021/03/05 00:37:55;;;;;;;22.52;4.68;;;18.40;46.10;;;;;;5098784;28;20023;-71
2021/03/05 00:40:23;;;;;;;22.90;4.45;;;18.30;46.20;;;;;;5095465;28;20016;-72
2021/03/05 00:42:50;;;;;;;17.38;5.03;;;18.20;46.50;;;;;;5095016;28;20028;-76
2021/03/05 00:45:19;;;;;;;15.75;4.60;;;18.10;46.90;;;;;;5095488;28;20016;-70
2021/03/05 00:47:46;;;;;;;15.88;4.95;;;17.90;47.10;;;;;;5099878;28;20024;-70
2021/03/05 00:50:15;;;;;;;18.58;5.35;;;17.80;47.70;;;;;;5096280;28;20047;-70
2021/03/05 00:52:41;;;;;;;26.52;5.97;;;17.60;47.90;;;;;;5099071;28;20338;-70
2021/03/05 00:55:10;;;;;;;20.40;4.75;;;17.50;47.90;;;;;;5099911;28;20032;-70
2021/03/05 00:57:36;;;;;;;20.23;5.30;;;17.50;48.10;;;;;;5099821;28;20024;-72
2021/03/05 01:00:08;;;;;;;17.85;4.03;;;17.40;48.60;;;;;;5098316;28;20028;-70
2021/03/05 01:02:35;;;;;;;20.58;5.45;;;17.20;48.30;;;;;;5097635;28;20369;-71
2021/03/05 01:05:02;;;;;;;17.30;4.38;;;17.20;48.80;;;;;;5102472;28;20093;-70
2021/03/05 01:07:28;;;;;;;14.85;4.32;;;17.20;48.90;;;;;;5094729;28;20335;-71
2021/03/05 01:09:55;;;;;;;13.98;4.60;;;17.10;49.10;;;;;;5096259;28;20060;-71
2021/03/05 01:12:22;;;;;;;18.02;4.05;;;17.00;49.30;;;;;;5088163;28;20051;-71
2021/03/05 01:14:49;;;;;;;19.00;4.90;;;17.00;49.40;;;;;;5095068;28;20056;-71
2021/03/05 01:17:16;;;;;;;20.85;4.38;;;16.90;49.70;;;;;;5092380;28;20055;-72
2021/03/05 01:19:43;;;;;;;18.95;5.25;;;16.70;49.70;;;;;;5092774;28;20412;-71
2021/03/05 01:22:09;;;;;;;17.90;5.82;;;16.70;49.70;;;;;;5093936;28;20480;-71
2021/03/05 01:24:36;;;;;;;19.50;4.05;;;16.70;50.00;;;;;;5097444;28;20127;-71
2021/03/05 01:27:02;;;;;;;17.30;4.57;;;16.60;49.90;;;;;;5092962;28;20591;-71
2021/03/05 01:29:29;;;;;;;13.90;4.25;;;16.60;50.10;;;;;;5095632;28;20012;-71
2021/03/05 01:31:55;;;;;;;14.95;3.92;;;16.50;50.20;;;;;;5098529;28;20020;-71
2021/03/05 01:34:22;;;;;;;14.07;4.35;;;16.40;50.30;;;;;;5089084;28;20027;-71
2021/03/05 01:36:48;;;;;;;22.85;4.43;;;16.50;50.40;;;;;;5098572;28;20035;-71
2021/03/05 01:39:15;;;;;;;22.48;4.80;;;16.40;50.50;;;;;;5098841;28;20111;-71
2021/03/05 01:41:41;;;;;;;11.80;4.07;;;16.40;50.50;;;;;;5095674;28;20028;-70
2021/03/05 01:44:10;;;;;;;19.48;4.60;;;16.30;50.50;;;;;;5101519;28;20044;-71
2021/03/05 01:46:37;;;;;;;14.18;3.90;;;16.30;50.60;;;;;;5099255;28;20068;-72
2021/03/05 01:49:04;;;;;;;16.88;4.63;;;16.20;50.70;;;;;;5096844;28;20019;-70
2021/03/05 01:51:37;;;;;;;16.20;5.10;;;16.30;50.50;;;;;;5095503;28;20028;-71
2021/03/05 01:54:05;;;;;;;12.57;4.10;;;16.20;50.70;;;;;;5087331;28;20020;-71
2021/03/05 01:56:36;;;;;;;19.02;3.97;;;16.10;50.80;;;;;;5097871;28;20028;-72
2021/03/05 01:59:06;;;;;;;15.35;5.50;;;16.00;51.20;;;;;;5088382;28;20140;-72
2021/03/05 02:01:34;;;;;;;16.58;4.18;;;16.00;51.30;;;;;;5094979;28;20108;-72
2021/03/05 02:04:02;;;;;;;12.50;4.05;;;15.90;51.50;;;;;;5097126;28;20027;-72
2021/03/05 02:06:29;;;;;;;23.85;5.90;;;15.90;51.50;;;;;;5097748;28;20051;-73
2021/03/05 02:08:55;;;;;;;12.43;3.38;;;15.80;51.70;;;;;;5091936;28;20020;-72
2021/03/05 02:11:23;;;;;;;19.88;4.55;;;15.70;51.60;;;;;;5097233;28;20020;-72
2021/03/05 02:13:53;;;;;;;19.90;4.80;;;15.60;52.10;;;;;;5095953;28;20131;-70
2021/03/05 02:16:32;;;;;;;23.33;4.43;;;15.60;52.50;;;;;;5095790;28;20016;-73
2021/03/05 02:19:12;;;;;;;16.67;4.50;;;15.60;53.10;;;;;;5097365;28;20031;-71
2021/03/05 02:22:11;;;;;;;14.95;4.28;;;15.50;53.00;;;;;;5098201;28;20035;-73
2021/03/05 02:24:59;;;;;;;19.08;4.72;;;15.50;53.30;;;;;;5089187;28;20050;-72
2021/03/05 02:27:50;;;;;;;20.50;4.70;;;15.20;53.60;;;;;;5087218;28;20032;-72
2021/03/05 02:30:30;;;;;;;13.10;3.88;;;15.20;53.50;;;;;;5089719;28;20035;-72
2021/03/05 02:33:22;;;;;;;18.23;4.22;;;15.20;52.90;;;;;;5084228;28;20063;-73
2021/03/05 02:35:50;;;;;;;21.73;4.55;;;15.20;53.70;;;;;;5088866;28;20039;-72
2021/03/05 02:38:23;;;;;;;14.88;3.97;;;15.10;52.90;;;;;;5089438;28;20028;-73
2021/03/05 02:40:53;;;;;;;12.18;4.97;;;14.90;53.20;;;;;;5099980;28;20081;-73
2021/03/05 02:43:23;;;;;;;12.05;5.32;;;14.60;53.60;;;;;;5087838;28;20032;-73
2021/03/05 02:45:58;;;;;;;13.07;4.13;;;14.40;54.80;;;;;;5081648;28;20035;-70
2021/03/05 02:48:46;;;;;;;10.55;3.50;;;14.40;54.10;;;;;;5095913;28;20023;-72
2021/03/05 02:51:16;;;;;;;19.40;3.90;;;14.30;54.60;;;;;;5096284;28;20130;-72
2021/03/05 02:53:44;;;;;;;12.05;4.18;;;14.30;54.00;;;;;;5097985;28;20346;-71
2021/03/05 02:56:17;;;;;;;15.52;4.32;;;14.30;53.70;;;;;;5093210;28;20065;-71
2021/03/05 02:58:47;;;;;;;8.73;4.32;;;14.30;53.30;;;;;;5098503;28;20365;-72
2021/03/05 03:01:16;;;;;;;10.82;3.33;;;14.70;51.60;;;;;;5086003;28;20032;-71
2021/03/05 03:03:43;;;;;;;13.50;3.30;;;14.80;51.00;;;;;;5091109;28;20031;-71
2021/03/05 03:06:12;;;;;;;11.75;2.78;;;14.80;51.20;;;;;;5098819;28;20038;-71
2021/03/05 03:08:39;;;;;;;12.63;2.92;;;14.80;51.00;;;;;;5099644;28;20024;-71
2021/03/05 03:11:07;;;;;;;5.60;2.20;;;14.70;51.40;;;;;;5103831;28;20030;-71
2021/03/05 03:13:36;;;;;;;10.27;2.97;;;14.60;51.60;;;;;;5100604;28;20107;-71
2021/03/05 03:16:04;;;;;;;11.30;3.13;;;14.60;51.70;;;;;;5099134;28;20031;-72
2021/03/05 03:18:33;;;;;;;11.07;4.68;;;14.50;51.80;;;;;;5094195;28;20035;-71
2021/03/05 03:21:01;;;;;;;14.07;5.80;;;14.50;51.70;;;;;;5100243;28;20028;-71
2021/03/05 03:23:28;;;;;;;10.45;3.40;;;14.40;52.00;;;;;;5090862;28;20340;-70
2021/03/05 03:25:55;;;;;;;7.63;3.10;;;14.30;51.90;;;;;;5089531;28;20036;-72
2021/03/05 03:28:21;;;;;;;11.07;3.42;;;14.30;51.70;;;;;;5096040;28;20511;-71
2021/03/05 03:30:51;;;;;;;12.45;3.53;;;14.20;51.50;;;;;;5092802;28;20081;-70
2021/03/05 03:33:19;;;;;;;13.52;4.22;;;14.20;51.50;;;;;;5095421;28;20092;-71
2021/03/05 03:35:46;;;;;;;10.95;3.03;;;14.10;51.50;;;;;;5099622;28;20020;-70
2021/03/05 03:38:12;;;;;;;5.85;2.28;;;14.10;51.40;;;;;;5092544;28;20094;-72
2021/03/05 03:40:41;;;;;;;8.40;3.00;;;14.00;51.80;;;;;;5096477;28;20035;-71
2021/03/05 03:43:08;;;;;;;10.15;3.33;;;13.90;51.90;;;;;;5097076;28;20047;-72
2021/03/05 03:45:38;;;;;;;11.35;4.43;;;13.90;51.70;;;;;;5094700;28;20094;-72
2021/03/05 03:48:06;;;;;;;18.75;4.00;;;13.90;51.60;;;;;;5098094;28;20411;-71
2021/03/05 03:50:39;;;;;;;21.20;4.32;;;13.90;51.40;;;;;;5096478;28;20027;-71
2021/03/05 03:53:15;;;;;;;14.98;5.47;;;13.80;51.30;;;;;;5097886;28;20096;-72
2021/03/05 03:55:42;;;;;;;16.45;3.80;;;13.70;51.40;;;;;;5101430;28;20031;-72
2021/03/05 03:58:09;;;;;;;10.63;3.50;;;13.70;51.30;;;;;;5094223;28;20025;-71
2021/03/05 04:00:37;;;;;;;14.65;4.90;;;13.80;51.30;;;;;;5096807;28;20035;-73
2021/03/05 04:03:06;;;;;;;10.73;3.63;;;13.80;51.20;;;;;;5099127;28;20016;-73
2021/03/05 04:05:37;;;;;;;8.40;3.67;;;13.70;51.10;;;;;;5096135;28;20023;-73
2021/03/05 04:08:05;;;;;;;13.13;3.75;;;13.60;51.10;;;;;;5094056;28;20030;-72
2021/03/05 04:10:32;;;;;;;13.73;4.05;;;13.50;51.50;;;;;;5091468;28;20020;-72
2021/03/05 04:13:00;;;;;;;12.90;3.78;;;13.30;51.30;;;;;;5097140;28;20072;-73
2021/03/05 04:15:27;;;;;;;13.25;4.30;;;13.00;52.10;;;;;;5091412;28;20016;-70
2021/03/05 04:17:54;;;;;;;14.10;4.70;;;12.90;52.10;;;;;;5095710;28;20046;-71
2021/03/05 04:20:25;;;;;;;11.82;4.25;;;12.90;52.20;;;;;;5103142;28;20039;-70
2021/03/05 04:22:52;;;;;;;8.05;4.10;;;12.80;52.30;;;;;;5103741;28;20473;-72
2021/03/05 04:25:19;;;;;;;12.70;3.78;;;12.70;52.60;;;;;;5103134;28;20028;-71
2021/03/05 04:27:46;;;;;;;9.02;3.95;;;12.60;52.90;;;;;;5102800;28;20122;-71
2021/03/05 04:30:14;;;;;;;10.23;3.75;;;12.60;52.80;;;;;;5104164;28;20020;-71
2021/03/05 04:32:41;;;;;;;9.75;3.53;;;12.60;52.70;;;;;;5104035;28;20028;-72
2021/03/05 04:35:09;;;;;;;13.25;4.93;;;12.60;52.80;;;;;;5104828;28;20019;-72
2021/03/05 04:37:37;;;;;;;10.95;3.53;;;12.70;53.10;;;;;;5106493;28;20454;-72
2021/03/05 04:40:05;;;;;;;13.77;4.45;;;12.50;53.20;;;;;;5106317;28;20806;-75
2021/03/05 04:42:32;;;;;;;13.25;3.92;;;12.50;53.00;;;;;;5106059;28;20092;-73
2021/03/05 04:44:58;;;;;;;11.38;3.50;;;12.70;53.20;;;;;;5106452;28;20039;-72
2021/03/05 04:47:25;;;;;;;6.40;4.13;;;12.60;53.20;;;;;;5104459;27;20502;-72
2021/03/05 04:49:51;;;;;;;10.50;3.88;;;12.60;53.20;;;;;;5105034;28;20373;-71
2021/03/05 04:52:17;;;;;;;14.40;4.32;;;12.60;53.70;;;;;;5099031;28;20020;-71
2021/03/05 04:54:44;;;;;;;9.20;4.13;;;12.70;53.80;;;;;;5104832;28;20039;-71
2021/03/05 04:57:10;;;;;;;10.05;3.72;;;12.50;53.20;;;;;;5094240;28;20024;-72
2021/03/05 04:59:37;;;;;;;13.95;4.25;;;12.70;53.70;;;;;;5101339;28;20035;-71
2021/03/05 05:02:03;;;;;;;16.42;4.25;;;12.50;53.20;;;;;;5106661;28;20031;-71
2021/03/05 05:04:30;;;;;;;11.32;3.42;;;12.40;53.80;;;;;;5103698;28;20832;-71
2021/03/05 05:06:56;;;;;;;15.57;8.18;;;12.30;54.20;;;;;;5105446;28;20020;-72
2021/03/05 05:09:23;;;;;;;10.27;3.50;;;12.20;53.70;;;;;;5107322;28;20016;-72
2021/03/05 05:11:50;;;;;;;12.15;3.78;;;12.10;54.00;;;;;;5106006;28;20024;-72
2021/03/05 05:14:16;;;;;;;14.10;4.15;;;12.10;54.60;;;;;;5104047;28;20033;-72
2021/03/05 05:16:43;;;;;;;7.90;3.63;;;12.10;54.40;;;;;;5100224;28;20115;-72
2021/03/05 05:19:09;;;;;;;15.40;4.20;;;12.30;55.50;;;;;;5103237;28;20028;-73
2021/03/05 05:21:37;;;;;;;31.33;6.10;;;12.40;54.80;;;;;;5102980;28;20365;-72
2021/03/05 05:24:04;;;;;;;13.25;4.28;;;12.50;55.40;;;;;;5102262;28;20031;-72
2021/03/05 05:26:30;;;;;;;10.30;3.38;;;12.20;54.90;;;;;;5103939;28;20031;-72
2021/03/05 05:28:57;;;;;;;8.70;3.47;;;12.30;55.20;;;;;;5103644;28;20366;-73
2021/03/05 05:31:23;;;;;;;9.40;3.88;;;12.20;55.40;;;;;;5103633;28;20055;-72
2021/03/05 05:33:50;;;;;;;24.33;4.97;;;12.40;57.00;;;;;;5104084;28;20064;-72
2021/03/05 05:36:16;;;;;;;16.13;4.43;;;12.50;55.90;;;;;;5105333;28;20077;-72
2021/03/05 05:38:42;;;;;;;11.48;4.15;;;12.50;56.10;;;;;;5103924;28;20042;-73
2021/03/05 05:41:09;;;;;;;18.90;6.22;;;12.70;56.30;;;;;;5100455;28;20446;-73
2021/03/05 05:43:35;;;;;;;14.98;4.35;;;12.70;56.20;;;;;;5097013;28;20019;-72
2021/03/05 05:46:07;;;;;;;16.05;4.53;;;12.70;56.30;;;;;;5099979;28;20034;-72
2021/03/05 05:48:39;;;;;;;16.13;4.45;;;12.60;56.40;;;;;;5097706;28;20097;-72
2021/03/05 05:51:17;;;;;;;16.33;4.20;;;12.50;56.30;;;;;;5100215;28;20024;-72
2021/03/05 05:53:47;;;;;;;16.83;6.57;;;12.40;56.30;;;;;;5099048;28;20054;-72
2021/03/05 05:56:20;;;;;;;21.25;6.88;;;12.40;56.90;;;;;;5103405;28;20028;-73
2021/03/05 05:58:47;;;;;;;16.02;6.20;;;12.60;57.50;;;;;;5104939;28;20028;-72
2021/03/05 06:01:14;;;;;;;16.58;4.55;;;12.50;57.50;;;;;;5104106;28;20024;-72
2021/03/05 06:03:41;;;;;;;16.02;5.43;;;12.40;57.50;;;;;;5102121;28;20033;-72
2021/03/05 06:06:10;;;;;;;18.27;5.20;;;12.40;57.00;;;;;;5095781;28;20031;-72
2021/03/05 06:08:36;;;;;;;16.52;4.63;;;12.40;58.30;;;;;;5102783;28;20468;-72
2021/03/05 06:11:03;;;;;;;15.57;4.07;;;12.60;58.00;;;;;;5100377;28;20463;-72
2021/03/05 06:13:29;;;;;;;16.40;5.47;;;12.60;57.30;;;;;;5095932;28;20074;-73
2021/03/05 06:16:15;;;;;;;16.90;5.38;;;12.30;57.00;;;;;;5101666;28;20030;-72
2021/03/05 06:18:43;;;;;;;16.73;5.38;;;12.20;57.40;;;;;;5099562;28;20015;-72
2021/03/05 06:21:10;;;;;;;14.75;5.07;;;12.40;58.20;;;;;;5103575;28;20476;-72
2021/03/05 06:23:56;;;;;;;15.65;5.25;;;12.50;57.90;;;;;;5103196;28;20122;-72
2021/03/05 06:26:23;;;;;;;17.77;5.68;;;12.70;58.50;;;;;;5102842;28;20028;-71
2021/03/05 06:29:08;;;;;;;17.35;6.28;;;12.80;57.90;;;;;;5098636;28;20066;-72
2021/03/05 06:31:35;;;;;;;20.38;4.97;;;12.80;58.10;;;;;;5088334;28;20058;-72
2021/03/05 06:34:03;;;;;;;19.33;4.80;;;12.70;57.60;;;;;;5090918;28;20114;-72
2021/03/05 06:36:30;;;;;;;10.88;4.13;;;12.70;57.70;;;;;;5085741;28;20027;-71
2021/03/05 06:38:57;;;;;;;15.38;5.53;;;12.60;57.70;;;;;;5096404;28;20073;-72
2021/03/05 06:41:30;;;;;;;10.93;4.20;;;12.50;58.00;;;;;;5099390;28;20166;-74
2021/03/05 06:44:02;;;;;;;17.27;4.93;;;12.50;57.90;;;;;;5097506;28;20109;-74
2021/03/05 06:46:43;;;;;;;12.98;5.00;;;12.40;58.20;;;;;;5093481;28;20027;-72
2021/03/05 06:49:11;;;;;;;18.00;4.40;;;12.60;58.20;;;;;;5094520;28;20055;-71
2021/03/05 06:51:39;;;;;;;25.58;7.30;;;12.60;57.80;;;;;;5097948;28;20035;-70
2021/03/05 06:54:15;;;;;;;17.80;4.45;;;12.70;58.20;;;;;;5099699;28;20031;-72
2021/03/05 06:56:52;;;;;;;13.93;5.63;;;12.70;58.10;;;;;;5096412;28;20057;-72
2021/03/05 06:59:23;;;;;;;13.65;4.15;;;12.70;58.10;;;;;;5097475;28;20024;-72
2021/03/05 07:01:56;;;;;;;13.77;4.10;;;12.70;57.90;;;;;;5092147;28;20033;-72
2021/03/05 07:04:29;;;;;;;17.92;5.18;;;12.60;57.50;;;;;;5101216;28;20051;-72
2021/03/05 07:07:08;;;;;;;19.70;5.57;;;12.50;57.90;;;;;;5099593;28;20396;-71
2021/03/05 07:09:40;;;;;;;13.63;4.60;;;12.40;58.00;;;;;;5101058;28;20439;-72
2021/03/05 07:12:18;;;;;;;21.48;5.10;;;12.40;58.40;;;;;;5098610;28;20110;-71
2021/03/05 07:14:47;;;;;;;12.20;5.03;;;12.20;57.80;;;;;;5099549;28;20034;-70
2021/03/05 07:17:14;;;;;;;17.77;4.90;;;12.10;57.80;;;;;;5097867;28;20136;-72
2021/03/05 07:19:41;;;;;;;10.75;4.57;;;12.10;58.50;;;;;;5097697;28;20032;-72
2021/03/05 07:22:09;;;;;;;13.10;4.03;;;12.00;58.20;;;;;;5097594;28;20028;-72
2021/03/05 07:24:40;;;;;;;22.02;5.93;;;12.00;58.30;;;;;;5095912;28;20327;-72
2021/03/05 07:27:09;;;;;;;11.60;5.18;;;12.10;58.70;;;;;;5096935;28;20067;-71
2021/03/05 07:29:46;;;;;;;17.85;4.25;;;12.10;58.50;;;;;;5097960;28;20057;-73
2021/03/05 07:32:17;;;;;;;14.68;5.50;;;12.10;57.80;;;;;;5092582;28;20025;-72
2021/03/05 07:34:51;;;;;;;18.33;4.57;;;12.10;58.20;;;;;;5095372;28;20085;-72
2021/03/05 07:37:18;;;;;;;13.85;4.50;;;12.10;57.90;;;;;;5094791;28;20023;-71
2021/03/05 07:39:49;;;;;;;11.23;3.92;;;12.10;57.90;;;;;;5091673;28;20066;-71
2021/03/05 07:42:18;;;;;;;14.35;5.35;;;12.20;57.80;;;;;;5095429;28;20474;-71
2021/03/05 07:44:45;;;;;;;14.20;4.18;;;12.10;58.00;;;;;;5094018;28;20033;-71
2021/03/05 07:47:14;;;;;;;18.40;4.00;;;12.00;58.00;;;;;;5098554;28;20031;-71
2021/03/05 07:49:42;;;;;;;14.98;4.55;;;11.90;58.20;;;;;;5094211;28;20088;-71
2021/03/05 07:52:09;;;;;;;16.35;4.80;;;11.90;58.20;;;;;;5096301;28;20043;-72
2021/03/05 07:54:46;;;;;;;13.13;3.97;;;11.90;57.80;;;;;;5094853;28;20035;-72
2021/03/05 07:57:18;;;;;;;7.68;3.88;;;11.90;58.00;;;;;;5096481;28;20074;-71
2021/03/05 07:59:47;;;;;;;16.30;4.75;;;11.80;58.30;;;;;;5101272;28;20036;-71
2021/03/05 08:02:14;;;;;;;10.45;4.43;;;11.90;58.20;;;;;;5099527;28;20118;-71
2021/03/05 08:04:53;;;;;;;11.82;4.88;;;11.90;57.70;;;;;;5103195;28;20039;-71
2021/03/05 08:07:23;;;;;;;9.77;4.43;;;11.70;57.80;;;;;;5098740;28;20043;-71
2021/03/05 08:09:50;;;;;;;9.27;4.13;;;11.60;57.80;;;;;;5103985;28;20124;-71
2021/03/05 08:12:31;;;;;;;13.93;4.30;;;11.40;58.30;;;;;;5103784;28;20020;-71
2021/03/05 08:15:12;;;;;;;8.70;4.20;;;11.30;58.30;;;;;;5099252;28;20780;-71
2021/03/05 08:17:39;;;;;;;15.35;4.88;;;11.40;58.30;;;;;;5098813;28;20032;-73
2021/03/05 08:20:18;;;;;;;12.25;4.35;;;11.40;58.20;;;;;;5101147;28;20080;-71
2021/03/05 08:23:01;;;;;;;9.98;4.25;;;11.40;58.40;;;;;;5103056;28;20059;-72
2021/03/05 08:25:32;;;;;;;8.73;3.25;;;11.30;58.30;;;;;;5102948;28;20399;-72
2021/03/05 08:28:00;;;;;;;8.80;3.65;;;11.40;58.10;;;;;;5094501;28;20384;-72
2021/03/05 08:30:29;;;;;;;12.43;4.57;;;11.40;58.40;;;;;;5100917;28;20039;-72
2021/03/05 08:33:04;;;;;;;13.57;4.18;;;11.30;58.30;;;;;;5096537;28;20094;-72
2021/03/05 08:35:30;;;;;;;9.13;3.92;;;11.40;58.70;;;;;;5103300;28;20016;-72
2021/03/05 08:38:06;;;;;;;11.40;4.22;;;11.50;58.00;;;;;;5099965;28;20030;-72
2021/03/05 08:40:34;;;;;;;6.53;3.42;;;11.50;57.60;;;;;;5103505;28;20024;-72
2021/03/05 08:43:10;;;;;;;11.25;3.78;;;11.40;58.50;;;;;;5101287;28;20024;-72
2021/03/05 08:45:44;;;;;;;9.93;3.25;;;11.50;58.20;;;;;;5098052;28;20088;-75
2021/03/05 08:48:15;;;;;;;8.20;3.55;;;11.30;58.10;;;;;;5103896;28;20085;-72
2021/03/05 08:50:42;;;;;;;7.13;3.30;;;11.40;58.20;;;;;;5103397;28;20020;-72
2021/03/05 08:53:13;;;;;;;9.18;3.33;;;11.50;58.00;;;;;;5102238;28;20054;-71
2021/03/05 08:55:44;;;;;;;15.73;4.10;;;11.60;57.80;;;;;;5097728;28;20020;-72
2021/03/05 08:58:18;;;;;;;11.27;3.63;;;11.70;58.00;;;;;;5100806;28;20080;-71
2021/03/05 09:00:45;;;;;;;22.17;5.05;;;11.70;57.40;;;;;;5099010;28;20425;-71
2021/03/05 09:03:16;;;;;;;9.68;3.25;;;11.70;57.70;;;;;;5102824;28;20024;-72
2021/03/05 09:05:48;;;;;;;9.13;4.05;;;11.60;57.70;;;;;;5098789;28;20076;-72
2021/03/05 09:08:16;;;;;;;13.77;3.33;;;11.70;57.80;;;;;;5097893;28;20371;-72
2021/03/05 09:10:48;;;;;;;11.25;4.03;;;11.60;57.30;;;;;;5097439;28;20292;-71
2021/03/05 09:13:27;;;;;;;12.88;4.32;;;11.50;57.60;;;;;;5101095;28;20028;-72
2021/03/05 09:15:56;;;;;;;10.68;3.70;;;11.60;57.50;;;;;;5102566;28;20084;-73
2021/03/05 09:18:25;;;;;;;7.72;3.65;;;11.60;57.50;;;;;;5101185;28;20023;-71
2021/03/05 09:20:57;;;;;;;13.60;4.32;;;11.40;57.50;;;;;;5099431;28;20349;-71
2021/03/05 09:23:33;;;;;;;8.68;3.70;;;11.30;58.20;;;;;;5100703;28;20055;-71
2021/03/05 09:26:18;;;;;;;12.80;3.58;;;11.50;57.60;;;;;;5090132;28;20104;-72
2021/03/05 09:28:46;;;;;;;8.98;3.65;;;11.30;57.70;;;;;;5097913;28;20089;-71
2021/03/05 09:31:14;;;;;;;11.73;4.05;;;11.40;58.00;;;;;;5101217;28;20111;-71
2021/03/05 09:33:43;;;;;;;6.40;3.60;;;11.30;57.70;;;;;;5100617;28;20399;-71
2021/03/05 09:36:15;;;;;;;8.18;3.30;;;11.30;58.00;;;;;;5100662;28;20028;-71
2021/03/05 09:38:44;;;;;;;8.13;4.15;;;11.30;57.40;;;;;;5102952;28;20041;-71
2021/03/05 09:41:12;;;;;;;9.48;4.20;;;11.20;57.60;;;;;;5102746;28;20051;-70
2021/03/05 09:43:38;;;;;;;11.27;4.18;;;11.10;58.00;;;;;;5096948;28;20101;-71
2021/03/05 09:46:20;;;;;;;6.07;3.20;;;11.20;57.70;;;;;;5098862;28;20031;-71
2021/03/05 09:48:47;;;;;;;9.17;3.80;;;11.10;57.60;;;;;;5102372;28;20030;-71
2021/03/05 09:51:13;;;;;;;9.57;4.72;;;11.10;57.80;;;;;;5100803;28;20024;-71
2021/03/05 09:53:54;;;;;;;7.63;4.10;;;11.00;58.20;;;;;;5103329;28;20020;-73
2021/03/05 09:56:26;;;;;;;7.18;2.90;;;10.90;58.10;;;;;;5094652;28;20046;-71
2021/03/05 09:58:54;;;;;;;8.20;3.60;;;10.80;58.40;;;;;;5099505;28;20021;-72
2021/03/05 10:01:21;;;;;;;8.80;3.35;;;10.70;58.70;;;;;;5097801;28;20024;-72
2021/03/05 10:04:01;;;;;;;11.30;3.25;;;10.90;58.30;;;;;;5098150;28;20027;-72
2021/03/05 10:06:29;;;;;;;7.68;3.00;;;11.00;58.30;;;;;;5096055;28;20115;-72
2021/03/05 10:09:03;;;;;;;9.45;3.03;;;11.00;57.90;;;;;;5100150;28;20461;-72
2021/03/05 10:11:36;;;;;;;10.88;3.28;;;11.10;58.10;;;;;;5100015;28;20419;-72
2021/03/05 10:14:09;;;;;;;12.82;5.22;;;11.00;57.50;;;;;;5103200;28;20449;-72
2021/03/05 10:16:40;;;;;;;8.85;2.53;;;10.80;58.50;;;;;;5103360;28;20024;-72
2021/03/05 10:19:09;;;;;;;12.20;3.95;;;11.00;57.90;;;;;;5103272;28;20039;-72
2021/03/05 10:21:43;;;;;;;7.85;3.55;;;10.90;57.80;;;;;;5102740;28;20111;-72
2021/03/05 10:24:12;;;;;;;8.52;4.22;;;10.90;58.10;;;;;;5103627;28;20024;-71
2021/03/05 10:27:10;;;;;;;8.90;3.10;;;11.00;57.80;;;;;;5103413;28;20023;-71
2021/03/05 10:29:25;;;;;;;18.88;5.60;;;10.90;57.80;;;;;;5101947;28;20032;-71
2021/03/05 10:31:54;;;;;;;9.77;3.47;;;10.90;57.90;;;;;;5102162;28;20019;-72
2021/03/05 10:34:26;;;;;;;6.47;3.38;;;10.80;58.60;;;;;;5100010;28;20019;-72
2021/03/05 10:36:58;;;;;;;10.82;3.83;;;10.90;57.90;;;;;;5098706;28;20046;-72
2021/03/05 10:39:25;;;;;;;13.18;3.60;;;11.00;58.00;;;;;;5104213;28;20378;-72
2021/03/05 10:41:58;;;;;;;14.77;4.80;;;10.90;57.90;;;;;;5099142;28;20032;-71
2021/03/05 10:44:24;;;;;;;;;;;10.80;58.00;;;;;;5101410;28;20024;-73
2021/03/05 10:46:51;;;;;;;10.65;4.25;;;10.80;58.40;;;;;;5101182;28;19919;-74
2021/03/05 10:49:17;;;;;;;8.30;3.67;;;10.90;58.20;;;;;;5101782;28;20024;-73
2021/03/05 10:51:44;;;;;;;5.03;3.03;;;10.90;58.10;;;;;;5103022;28;20027;-72
2021/03/05 10:54:10;;;;;;;8.60;3.33;;;10.90;58.40;;;;;;5102799;28;20076;-72
2021/03/05 10:56:37;;;;;;;10.38;3.75;;;10.90;58.20;;;;;;5094129;28;20023;-71
2021/03/05 10:59:03;;;;;;;9.10;3.65;;;10.90;58.00;;;;;;5100956;28;20020;-72
2021/03/05 11:01:29;;;;;;;7.47;3.85;;;10.90;58.20;;;;;;5093039;28;20127;-71
2021/03/05 11:03:56;;;;;;;8.32;3.42;;;10.80;58.00;;;;;;5100455;28;20020;-71
2021/03/05 11:06:22;;;;;;;10.95;3.83;;;10.70;58.10;;;;;;5099561;28;20035;-71
2021/03/05 11:08:49;;;;;;;8.23;3.30;;;10.70;58.00;;;;;;5098066;28;20094;-72
2021/03/05 11:11:15;;;;;;;11.32;3.63;;;10.50;58.30;;;;;;5098347;28;20031;-71
2021/03/05 11:13:42;;;;;;;14.52;3.45;;;10.60;58.50;;;;;;5098420;28;20012;-72
2021/03/05 11:16:08;;;;;;;13.48;3.65;;;10.50;58.40;;;;;;5098469;28;20122;-71
2021/03/05 11:18:34;;;;;;;11.68;3.17;;;10.60;58.20;;;;;;5101534;28;20038;-72
2021/03/05 11:21:01;;;;;;;8.32;3.78;;;10.50;58.30;;;;;;5097107;28;20028;-72
2021/03/05 11:23:27;;;;;;;7.43;3.70;;;10.50;58.50;;;;;;5102936;28;20449;-72
2021/03/05 11:25:53;;;;;;;10.27;3.47;;;10.50;58.50;;;;;;5096879;28;20031;-72
2021/03/05 11:28:20;;;;;;;11.57;4.00;;;10.40;58.90;;;;;;5100843;28;20036;-71
2021/03/05 11:30:46;;;;;;;8.38;3.72;;;10.30;58.90;;;;;;5100946;28;20082;-71
2021/03/05 11:33:13;;;;;;;12.38;2.80;;;10.30;58.90;;;;;;5101705;28;20028;-71
2021/03/05 11:35:39;;;;;;;12.85;3.45;;;10.30;58.70;;;;;;5098110;28;20046;-71
2021/03/05 11:38:06;;;;;;;9.32;3.92;;;10.20;59.00;;;;;;5101728;28;20024;-71
2021/03/05 11:40:32;;;;;;;12.40;5.15;;;10.20;59.00;;;;;;5108678;27;20032;-71
2021/03/05 11:42:58;;;;;;;10.57;4.43;;;10.10;59.10;;;;;;5107086;28;20040;-72
2021/03/05 11:45:25;;;;;;;13.80;4.32;;;10.10;59.20;;;;;;5108405;28;20081;-71
2021/03/05 11:47:52;;;;;;;9.30;3.38;;;10.20;58.90;;;;;;5105961;27;20054;-72
2021/03/05 11:50:18;;;;;;;11.00;4.22;;;10.00;59.10;;;;;;5103439;28;20503;-71
2021/03/05 11:52:45;;;;;;;13.55;4.32;;;10.10;59.30;;;;;;5104455;28;20085;-71
2021/03/05 11:55:11;;;;;;;10.32;4.78;;;10.10;59.20;;;;;;5108639;28;20024;-71
2021/03/05 11:57:38;;;;;;;12.38;4.13;;;10.00;59.30;;;;;;5106919;28;20027;-73
2021/03/05 12:00:06;;;;;;;10.35;3.63;;;9.90;60.00;;;;;;5105327;28;20028;-72
2021/03/05 12:02:33;;;;;;;10.63;5.40;;;10.10;59.70;;;;;;5103057;28;20024;-71
2021/03/05 12:05:00;;;;;;;7.20;3.70;;;10.00;59.60;;;;;;5108468;28;20038;-72
2021/03/05 12:07:26;;;;;;;9.70;4.20;;;10.00;59.60;;;;;;5106320;27;20034;-71
2021/03/05 12:09:53;;;;;;;16.70;3.60;;;9.90;60.00;;;;;;5107437;27;20020;-71
2021/03/05 12:12:19;;;;;;;6.43;2.83;;;9.90;59.70;;;;;;5106647;28;20080;-72
2021/03/05 12:14:47;;;;;;;8.63;3.42;;;9.70;59.80;;;;;;5107271;28;20032;-72
2021/03/05 12:17:14;;;;;;;12.88;5.22;;;9.80;60.30;;;;;;5106669;28;20033;-71
2021/03/05 12:19:40;;;;;;;13.32;3.42;;;9.80;60.80;;;;;;5103134;28;20483;-72
2021/03/05 12:22:07;;;;;;;9.13;4.07;;;9.80;60.60;;;;;;5105946;27;20051;-72
2021/03/05 12:24:34;;;;;;;17.60;4.88;;;9.80;60.80;;;;;;5109821;28;20031;-72
2021/03/05 12:27:02;;;;;;;9.88;3.70;;;9.80;60.80;;;;;;5106699;27;20045;-71
2021/03/05 12:29:29;;;;;;;12.88;4.55;;;9.80;61.30;;;;;;5105388;28;20107;-72
2021/03/05 12:31:56;;;;;;;12.48;4.13;;;9.80;61.20;;;;;;5105321;28;20035;-72
2021/03/05 12:34:22;;;;;;;14.68;5.05;;;9.80;61.10;;;;;;5107951;28;20076;-72
2021/03/05 12:36:49;;;;;;;11.07;4.13;;;9.80;60.80;;;;;;5109326;28;20027;-72
2021/03/05 12:39:15;;;;;;;14.35;5.50;;;9.70;61.30;;;;;;5109117;28;20060;-71
2021/03/05 12:41:41;;;;;;;13.73;4.95;;;9.70;61.70;;;;;;5104900;28;20115;-71
2021/03/05 12:44:08;;;;;;;13.68;4.10;;;9.70;62.00;;;;;;5108687;28;20441;-72
2021/03/05 12:46:35;;;;;;;12.63;4.63;;;9.50;61.80;;;;;;5104518;28;20039;-72
2021/03/05 12:49:02;;;;;;;12.95;4.90;;;9.50;62.20;;;;;;5108816;28;20020;-75
2021/03/05 12:51:28;;;;;;;13.57;4.85;;;9.50;62.40;;;;;;5100743;28;20050;-73